Airfield :
LOGIN :

Register | Disclaimer

   EN    FR    IT 

 










Legend :    VFR   Marginal VFR   IFR   Intensive IFR   Very Intensive IFR
Visi :
Ceiling :
>= 8 km
>= 3000ft
5 to 8 km
1000 to 3000 ft
1500m to 5 km
500 to 1000 ft
800 to 1500m
200 to 500 ft
< 800m
< 200 ft
Symbols :   Thunderstorms  Fog  Heavy snow  Heavy precipitations  Wind > 20 kt
SIGMETs :     Misc.  Thunderstorms  Icing  Turbulence  Mountain Waves  Volcanic Ashes






- Airport Elevation : 622 ft
- IATA code : SVO


UUEE - Sheremetyevo International

CURRENT METAR :
  • 020200Z 05007MPS 020V080 CAVOK 10/06 Q1014 R06R/190057 NOSIG

EXPIRED METARs :
  • 020130Z 05007MPS CAVOK 10/06 Q1014 R06R/190057 NOSIG
  • 020100Z 05006MPS CAVOK 09/06 Q1014 R06R/190057 NOSIG
  • 020030Z 05006MPS CAVOK 09/06 Q1014 R06R/190057 NOSIG
  • 020000Z 05006MPS CAVOK 10/06 Q1014 R06R/190057 NOSIG
  • 012330Z 05006MPS CAVOK 10/07 Q1014 R06R/190057 NOSIG

TAF TAF UUEE
Valid from the 02 at 00:00 until the 03 at 00:00 UTC


012250Z 0200/0224 04007MPS 9000 BKN016 TX12/0213Z TN09/0201Z
TEMPO 0206/0224 07008G14MPS -SHRA BKN016CB



MET'MAP, your aeronautical weather chart ! - Copyright ORBIFLY December 2007 - Disclaimer

ORBIFLY MET'MAP TEAM :

Programming & Development : Alexandra Zaïnal
Concept & original design : Baudouin d'Aumeries
Assistance for programming : Marc-Olivier Méhu
Technical & hardware support : Manuel Goepfert

Contact : metmap@orbifly.com




SOURCES & CREDITS :

   NOAA